Time;durP1;ratioP1;P1;durP2;ratioP2;P2;SDS_P1;SDS_P2;PMS_P1;PMS_P2;Temp;Humidity;BMP_temperature;BMP_pressure;BME280_temperature;BME280_humidity;BME280_pressure;Samples;Min_cycle;Max_cycle;Signal;HPM_P1;HPM_P2
2020/12/22 00:01:31;;;;;;;3.03;2.47;;;10.00;99.90;;;;;;5067825;28;20588;-77
2020/12/22 00:04:16;;;;;;;3.67;2.80;;;10.00;99.90;;;;;;5060697;28;20442;-74
2020/12/22 00:07:01;;;;;;;6.83;2.43;;;10.10;99.90;;;;;;5060759;28;20802;-76
2020/12/22 00:09:46;;;;;;;3.42;2.45;;;10.10;99.90;;;;;;5064321;28;20475;-76
2020/12/22 00:12:33;;;;;;;3.87;2.60;;;10.10;99.90;;;;;;5061190;28;20274;-75
2020/12/22 00:15:18;;;;;;;2.90;2.28;;;10.20;99.90;;;;;;5062011;28;20820;-76
2020/12/22 00:18:03;;;;;;;2.90;2.20;;;10.20;99.90;;;;;;5060987;28;20252;-76
2020/12/22 00:20:49;;;;;;;3.85;3.00;;;10.20;99.90;;;;;;5069705;28;20474;-76
2020/12/22 00:23:34;;;;;;;3.10;2.40;;;10.20;99.90;;;;;;5065154;28;20200;-75
2020/12/22 00:26:19;;;;;;;2.67;2.20;;;10.20;99.90;;;;;;5055997;28;20265;-76
2020/12/22 00:29:05;;;;;;;3.67;3.00;;;10.20;99.90;;;;;;5068180;28;20810;-75
2020/12/22 00:31:50;;;;;;;5.15;3.00;;;10.20;99.90;;;;;;5061093;28;20918;-76
2020/12/22 00:34:36;;;;;;;3.07;2.77;;;10.20;99.90;;;;;;5065579;28;20204;-76
2020/12/22 00:37:21;;;;;;;3.10;2.70;;;10.20;99.90;;;;;;5065695;28;20450;-77
2020/12/22 00:40:06;;;;;;;4.60;2.63;;;10.30;99.90;;;;;;5067625;28;20470;-76
2020/12/22 00:42:51;;;;;;;5.30;2.80;;;10.30;99.90;;;;;;5066803;28;20492;-77
2020/12/22 00:45:37;;;;;;;4.00;2.50;;;10.30;99.90;;;;;;5063333;28;20440;-76
2020/12/22 00:48:22;;;;;;;3.13;2.27;;;10.40;99.90;;;;;;5070864;28;20200;-75
2020/12/22 00:51:13;;;;;;;2.88;2.15;;;10.40;99.90;;;;;;5060971;28;20810;-76
2020/12/22 00:53:58;;;;;;;2.93;2.07;;;10.50;99.90;;;;;;5062577;28;20626;-75
2020/12/22 00:56:47;;;;;;;3.60;2.37;;;10.50;99.90;;;;;;5067075;28;21012;-75
2020/12/22 00:59:34;;;;;;;4.77;2.30;;;10.50;99.90;;;;;;5056638;28;20496;-75
2020/12/22 01:02:20;;;;;;;3.77;2.57;;;10.50;99.90;;;;;;5060814;28;20458;-76
2020/12/22 01:05:06;;;;;;;3.43;2.37;;;10.50;99.90;;;;;;5060323;28;20823;-76
2020/12/22 01:07:51;;;;;;;3.57;3.10;;;10.50;99.90;;;;;;5060777;28;20434;-76
2020/12/22 01:10:36;;;;;;;3.30;2.53;;;10.50;99.90;;;;;;5054876;28;20997;-76
2020/12/22 01:13:21;;;;;;;4.30;2.73;;;10.60;99.90;;;;;;5065126;28;20470;-76
2020/12/22 01:16:07;;;;;;;3.17;2.70;;;10.60;99.90;;;;;;5053551;28;20965;-76
2020/12/22 01:18:52;;;;;;;3.63;3.00;;;10.60;99.90;;;;;;5059282;28;20445;-76
2020/12/22 01:21:38;;;;;;;7.10;2.53;;;10.60;99.90;;;;;;5062371;28;20493;-76
2020/12/22 01:24:23;;;;;;;4.20;2.60;;;10.60;99.90;;;;;;5063629;28;20446;-76
2020/12/22 01:27:08;;;;;;;3.67;2.60;;;10.60;99.90;;;;;;5062140;28;20462;-76
2020/12/22 01:29:53;;;;;;;3.30;2.90;;;10.60;99.90;;;;;;5063587;28;20467;-76
2020/12/22 01:32:38;;;;;;;2.97;2.40;;;10.60;99.90;;;;;;5061900;28;20538;-75
2020/12/22 01:35:24;;;;;;;4.07;2.57;;;10.60;99.90;;;;;;5060493;28;20446;-76
2020/12/22 01:38:09;;;;;;;3.20;2.90;;;10.70;99.90;;;;;;5064668;28;21044;-76
2020/12/22 01:40:54;;;;;;;3.60;2.60;;;10.70;99.90;;;;;;5064602;28;20594;-77
2020/12/22 01:43:40;;;;;;;4.97;3.00;;;10.70;99.90;;;;;;5067906;28;20509;-76
2020/12/22 01:46:26;;;;;;;4.40;3.13;;;10.80;99.90;;;;;;5066126;28;20853;-76
2020/12/22 01:49:15;;;;;;;3.67;2.70;;;10.80;99.90;;;;;;5066627;28;20328;-76
2020/12/22 01:52:03;;;;;;;2.80;2.20;;;10.80;99.90;;;;;;5072227;28;20445;-75
2020/12/22 01:54:48;;;;;;;5.10;2.80;;;10.80;99.90;;;;;;5062386;28;20451;-76
2020/12/22 01:57:33;;;;;;;3.93;3.10;;;10.80;99.90;;;;;;5064416;28;20602;-75
2020/12/22 02:00:18;;;;;;;3.97;3.00;;;10.80;99.90;;;;;;5063043;28;20512;-76
2020/12/22 02:03:05;;;;;;;3.37;2.90;;;10.80;99.90;;;;;;5070356;28;20459;-76
2020/12/22 02:05:50;;;;;;;4.00;3.00;;;10.80;99.90;;;;;;5070837;28;20482;-76
2020/12/22 02:08:36;;;;;;;3.03;2.73;;;10.80;99.90;;;;;;5070103;28;20501;-76
2020/12/22 02:11:28;;;;;;;3.73;3.03;;;10.80;99.90;;;;;;5062185;28;20530;-76
2020/12/22 02:14:13;;;;;;;3.73;3.17;;;10.80;99.90;;;;;;5061901;28;20454;-76
2020/12/22 02:16:58;;;;;;;4.40;2.80;;;10.80;99.90;;;;;;5069022;28;20475;-76
2020/12/22 02:19:44;;;;;;;3.27;2.57;;;10.80;99.90;;;;;;5063696;28;21125;-76
2020/12/22 02:22:30;;;;;;;4.33;2.83;;;10.80;99.90;;;;;;5063431;28;20439;-76
2020/12/22 02:25:16;;;;;;;3.20;2.70;;;10.80;99.90;;;;;;5062890;28;20485;-77
2020/12/22 02:28:01;;;;;;;3.80;2.50;;;10.80;99.90;;;;;;5068292;28;20622;-76
2020/12/22 02:30:46;;;;;;;3.90;3.17;;;10.80;99.90;;;;;;5062991;28;20482;-76
2020/12/22 02:33:31;;;;;;;4.03;2.90;;;10.80;99.90;;;;;;5064584;28;20450;-76
2020/12/22 02:36:16;;;;;;;2.63;2.20;;;10.80;99.90;;;;;;5061419;28;20451;-75
2020/12/22 02:39:04;;;;;;;2.70;2.10;;;10.80;99.90;;;;;;5061345;28;20513;-76
2020/12/22 02:41:50;;;;;;;3.10;2.33;;;10.80;99.90;;;;;;5059196;28;20443;-76
2020/12/22 02:44:35;;;;;;;2.80;2.30;;;10.80;99.90;;;;;;5061691;28;20491;-75
2020/12/22 02:47:20;;;;;;;3.57;2.30;;;10.80;99.90;;;;;;5062504;28;20450;-76
2020/12/22 02:50:05;;;;;;;3.87;2.47;;;10.80;99.90;;;;;;5067067;28;20559;-75
2020/12/22 02:52:50;;;;;;;2.80;1.90;;;10.80;99.90;;;;;;5071000;28;20982;-75
2020/12/22 02:55:36;;;;;;;2.80;2.47;;;10.80;99.90;;;;;;5068753;28;20554;-76
2020/12/22 02:58:21;;;;;;;4.33;2.10;;;10.90;99.90;;;;;;5065613;28;20462;-76
2020/12/22 03:01:06;;;;;;;2.40;2.07;;;10.90;99.90;;;;;;5071832;28;20596;-75
2020/12/22 03:03:52;;;;;;;4.73;1.93;;;10.90;99.90;;;;;;5069281;28;20458;-75
2020/12/22 03:06:37;;;;;;;2.37;2.10;;;10.90;99.90;;;;;;5069262;28;20470;-76
2020/12/22 03:09:22;;;;;;;2.43;1.73;;;10.90;99.90;;;;;;5059592;28;20833;-76
2020/12/22 03:12:08;;;;;;;2.43;1.87;;;10.80;99.90;;;;;;5069671;28;20446;-75
2020/12/22 03:14:53;;;;;;;3.13;1.87;;;10.80;99.90;;;;;;5070601;28;20442;-76
2020/12/22 03:17:39;;;;;;;2.87;1.40;;;10.90;99.90;;;;;;5069171;28;20447;-76
2020/12/22 03:20:24;;;;;;;2.23;1.63;;;10.90;99.90;;;;;;5064052;28;20882;-76
2020/12/22 03:23:10;;;;;;;2.00;1.50;;;10.90;99.90;;;;;;5061954;28;20981;-76
2020/12/22 03:25:55;;;;;;;1.73;1.17;;;10.90;99.90;;;;;;5057601;28;21389;-76
2020/12/22 03:28:41;;;;;;;1.90;1.43;;;11.00;99.90;;;;;;5060439;28;20466;-77
2020/12/22 03:31:26;;;;;;;3.27;1.70;;;11.00;99.90;;;;;;5056259;28;20443;-75
2020/12/22 03:34:11;;;;;;;2.77;1.50;;;11.00;99.90;;;;;;5060841;28;20574;-76
2020/12/22 03:36:56;;;;;;;3.03;1.40;;;11.00;99.90;;;;;;5064531;28;20969;-74
2020/12/22 03:39:41;;;;;;;1.90;1.20;;;11.10;99.90;;;;;;5063232;28;20483;-76
2020/12/22 03:42:27;;;;;;;2.00;1.30;;;11.10;99.90;;;;;;5056012;28;20479;-75
2020/12/22 03:45:16;;;;;;;1.90;1.50;;;11.10;99.90;;;;;;5058043;28;20436;-76
2020/12/22 03:48:01;;;;;;;2.13;1.50;;;11.10;99.90;;;;;;5061580;28;20821;-76
2020/12/22 03:50:46;;;;;;;2.40;1.40;;;11.10;99.90;;;;;;5067732;28;20490;-76
2020/12/22 03:53:31;;;;;;;2.17;1.50;;;11.10;99.90;;;;;;5058617;28;20481;-76
2020/12/22 03:56:16;;;;;;;4.00;2.00;;;11.10;99.90;;;;;;5059165;28;20446;-74
2020/12/22 03:59:01;;;;;;;2.87;1.80;;;11.10;99.90;;;;;;5065595;28;20466;-75
2020/12/22 04:01:50;;;;;;;2.03;1.80;;;11.10;99.90;;;;;;5060682;28;20538;-77
2020/12/22 04:04:35;;;;;;;1.93;1.40;;;11.10;99.90;;;;;;5058017;28;20470;-77
2020/12/22 04:07:21;;;;;;;2.10;1.50;;;11.10;99.90;;;;;;5063814;28;20998;-76
2020/12/22 04:10:07;;;;;;;1.60;1.10;;;11.10;99.90;;;;;;5060211;28;20462;-75
2020/12/22 04:12:52;;;;;;;1.80;1.20;;;11.20;99.90;;;;;;5069363;28;20529;-76
2020/12/22 04:15:37;;;;;;;4.73;1.97;;;11.20;99.90;;;;;;5068493;28;21171;-76
2020/12/22 04:18:23;;;;;;;2.63;1.50;;;11.10;99.90;;;;;;5063635;28;20439;-74
2020/12/22 04:21:08;;;;;;;1.90;1.30;;;11.10;99.90;;;;;;5067988;28;20466;-76
2020/12/22 04:23:53;;;;;;;2.47;1.53;;;11.20;99.90;;;;;;5064150;28;20481;-76
2020/12/22 04:26:39;;;;;;;2.00;1.30;;;11.20;99.90;;;;;;5060820;28;20569;-76
2020/12/22 04:29:24;;;;;;;2.30;1.40;;;11.20;99.90;;;;;;5065425;28;20435;-76
2020/12/22 04:32:09;;;;;;;1.90;1.37;;;11.30;99.90;;;;;;5064283;28;20488;-75
2020/12/22 04:34:55;;;;;;;2.40;1.47;;;11.30;99.90;;;;;;5068174;28;20426;-74
2020/12/22 04:37:40;;;;;;;2.20;1.57;;;11.30;99.90;;;;;;5056155;28;20466;-74
2020/12/22 04:40:25;;;;;;;2.20;1.00;;;11.30;99.90;;;;;;5058534;28;20548;-75
2020/12/22 04:43:11;;;;;;;3.70;1.30;;;11.30;99.90;;;;;;5056047;28;20613;-76
2020/12/22 04:46:03;;;;;;;1.63;1.00;;;11.40;99.90;;;;;;5060047;28;20450;-76
2020/12/22 04:48:54;;;;;;;1.67;0.93;;;11.40;99.90;;;;;;5065642;28;21068;-75
2020/12/22 04:51:41;;;;;;;1.63;1.00;;;11.50;99.90;;;;;;5067525;28;20877;-76
2020/12/22 04:54:26;;;;;;;2.20;1.43;;;11.50;99.90;;;;;;5064439;28;20446;-76
2020/12/22 04:57:15;;;;;;;1.50;0.90;;;11.50;99.90;;;;;;5055331;28;20460;-75
2020/12/22 05:00:02;;;;;;;2.27;1.20;;;11.50;99.90;;;;;;5065695;28;21041;-75
2020/12/22 05:02:50;;;;;;;2.20;1.40;;;11.60;99.90;;;;;;5062609;28;20557;-76
2020/12/22 05:05:34;;;;;;;1.60;1.10;;;11.60;99.90;;;;;;5067535;28;20957;-76
2020/12/22 05:08:21;;;;;;;1.97;1.00;;;11.60;99.90;;;;;;5066988;28;20484;-76
2020/12/22 05:11:15;;;;;;;2.00;0.90;;;11.70;99.90;;;;;;5070249;28;20439;-75
2020/12/22 05:14:00;;;;;;;2.10;1.50;;;11.70;99.90;;;;;;5061561;28;20493;-76
2020/12/22 05:16:46;;;;;;;5.10;1.10;;;11.70;99.90;;;;;;5068402;28;20426;-76
2020/12/22 05:19:35;;;;;;;4.00;0.70;;;11.70;99.90;;;;;;5062858;28;21020;-76
2020/12/22 05:22:21;;;;;;;1.50;0.97;;;11.70;99.90;;;;;;5068365;28;20492;-76
2020/12/22 05:25:07;;;;;;;1.70;1.03;;;11.70;99.90;;;;;;5069882;28;20465;-77
2020/12/22 05:27:55;;;;;;;1.60;0.80;;;11.70;99.90;;;;;;5064372;28;20544;-76
2020/12/22 05:30:41;;;;;;;1.67;0.87;;;11.70;99.90;;;;;;5060069;28;20478;-76
2020/12/22 05:33:26;;;;;;;1.50;1.13;;;11.70;99.90;;;;;;5055063;28;20454;-75
2020/12/22 05:36:11;;;;;;;2.00;1.00;;;11.70;99.90;;;;;;5052736;28;20953;-77
2020/12/22 05:38:56;;;;;;;3.03;0.90;;;11.70;99.90;;;;;;5060085;28;20451;-76
2020/12/22 05:41:42;;;;;;;3.70;1.10;;;11.70;99.90;;;;;;5056339;28;20808;-76
2020/12/22 05:44:27;;;;;;;1.87;1.00;;;11.70;99.90;;;;;;5057180;28;20997;-76
2020/12/22 05:47:15;;;;;;;2.20;1.70;;;11.70;99.90;;;;;;5057224;28;20992;-76
2020/12/22 05:50:01;;;;;;;2.47;1.00;;;11.70;99.90;;;;;;5066894;28;20825;-76
2020/12/22 05:52:46;;;;;;;2.23;0.97;;;11.70;99.90;;;;;;5065090;28;20552;-75
2020/12/22 05:55:34;;;;;;;1.47;0.90;;;11.70;99.90;;;;;;5060509;28;21015;-76
2020/12/22 05:58:20;;;;;;;2.43;1.40;;;11.70;99.90;;;;;;5062672;28;20477;-77
2020/12/22 06:01:09;;;;;;;7.33;1.80;;;11.70;99.90;;;;;;5056746;28;20996;-77
2020/12/22 06:03:56;;;;;;;2.40;1.40;;;11.70;99.90;;;;;;5066297;28;20484;-77
2020/12/22 06:06:42;;;;;;;2.73;1.50;;;11.70;99.90;;;;;;5057018;28;20586;-77
2020/12/22 06:09:29;;;;;;;2.93;1.80;;;11.70;99.90;;;;;;5053946;28;20470;-76
2020/12/22 06:12:14;;;;;;;2.40;1.70;;;11.70;99.90;;;;;;5058103;28;20447;-76
2020/12/22 06:15:00;;;;;;;2.30;1.40;;;11.70;99.90;;;;;;5049573;28;20447;-77
2020/12/22 06:17:45;;;;;;;2.23;1.23;;;11.70;99.90;;;;;;5053240;28;20578;-76
2020/12/22 06:20:31;;;;;;;2.10;1.07;;;11.70;99.90;;;;;;5058664;28;20496;-75
2020/12/22 06:23:20;;;;;;;3.93;1.60;;;11.70;99.90;;;;;;5056608;28;20506;-75
2020/12/22 06:26:05;;;;;;;4.33;1.40;;;11.70;99.90;;;;;;5065851;28;20442;-75
2020/12/22 06:28:50;;;;;;;2.33;1.33;;;11.70;99.90;;;;;;5062612;28;20773;-75
2020/12/22 06:31:37;;;;;;;2.50;1.33;;;11.80;99.90;;;;;;5060184;28;20467;-75
2020/12/22 06:34:26;;;;;;;2.40;1.50;;;11.70;99.90;;;;;;5054017;28;20482;-75
2020/12/22 06:37:11;;;;;;;4.80;1.40;;;11.70;99.90;;;;;;5054694;28;20451;-74
2020/12/22 06:39:56;;;;;;;3.70;1.47;;;11.70;99.90;;;;;;5058438;28;20843;-75
2020/12/22 06:42:43;;;;;;;1.73;1.13;;;11.80;99.90;;;;;;5059514;28;20461;-77
2020/12/22 06:45:30;;;;;;;3.50;1.40;;;11.80;99.90;;;;;;5068507;28;20463;-76
2020/12/22 06:48:24;;;;;;;2.00;1.50;;;11.70;99.90;;;;;;5050883;28;20474;-75
2020/12/22 06:51:22;;;;;;;2.33;1.47;;;11.70;99.90;;;;;;5065385;28;20525;-75
2020/12/22 06:54:31;;;;;;;3.60;1.83;;;11.70;99.90;;;;;;5067935;28;20531;-75
2020/12/22 06:57:46;;;;;;;3.77;1.60;;;11.70;99.90;;;;;;5059686;28;20536;-76
2020/12/22 07:00:38;;;;;;;1.97;1.70;;;11.70;99.90;;;;;;5062711;28;20568;-76
2020/12/22 07:03:24;;;;;;;2.30;1.30;;;11.80;99.90;;;;;;5065706;28;20451;-77
2020/12/22 07:06:09;;;;;;;3.00;2.13;;;11.80;99.90;;;;;;5072480;28;20458;-77
2020/12/22 07:08:55;;;;;;;2.27;1.93;;;11.80;99.90;;;;;;5068285;28;20524;-77
2020/12/22 07:11:40;;;;;;;2.57;1.90;;;11.80;99.90;;;;;;5060907;28;20448;-77
2020/12/22 07:14:26;;;;;;;2.60;2.17;;;11.80;99.90;;;;;;5063592;28;20504;-75
2020/12/22 07:17:13;;;;;;;2.33;1.70;;;11.90;99.90;;;;;;5065139;28;20523;-77
2020/12/22 07:19:59;;;;;;;2.67;2.30;;;11.90;99.90;;;;;;5068873;28;20474;-77
2020/12/22 07:22:45;;;;;;;2.23;1.57;;;11.90;99.90;;;;;;5066351;28;20433;-77
2020/12/22 07:25:30;;;;;;;3.17;1.80;;;11.90;99.90;;;;;;5065789;28;20997;-75
2020/12/22 07:28:15;;;;;;;1.87;1.50;;;11.90;99.90;;;;;;5063096;28;20685;-77
2020/12/22 07:31:01;;;;;;;2.93;1.33;;;11.90;99.90;;;;;;5068595;28;21470;-77
2020/12/22 07:33:46;;;;;;;3.50;1.40;;;12.00;99.90;;;;;;5064164;28;21124;-77
2020/12/22 07:36:33;;;;;;;2.63;1.80;;;12.00;99.90;;;;;;5066533;28;20479;-76
2020/12/22 07:39:21;;;;;;;1.87;1.33;;;12.00;99.90;;;;;;5060037;28;20552;-76
2020/12/22 07:42:12;;;;;;;4.87;1.50;;;12.00;99.90;;;;;;5064062;28;20447;-75
2020/12/22 07:45:05;;;;;;;2.13;1.47;;;12.00;99.90;;;;;;5070534;28;20552;-76
2020/12/22 07:47:50;;;;;;;3.70;1.70;;;12.00;99.90;;;;;;5068619;28;20447;-77
2020/12/22 07:50:36;;;;;;;1.50;1.00;;;12.00;99.90;;;;;;5065777;28;22118;-76
2020/12/22 07:53:22;;;;;;;2.03;1.43;;;12.00;99.90;;;;;;5063575;28;20447;-74
2020/12/22 07:56:08;;;;;;;2.17;1.30;;;12.10;99.90;;;;;;5059373;28;20458;-76
2020/12/22 07:58:53;;;;;;;1.60;1.17;;;12.10;99.90;;;;;;5061627;28;20470;-76
2020/12/22 08:01:39;;;;;;;3.40;1.40;;;12.10;99.90;;;;;;5067743;28;20490;-76
2020/12/22 08:04:26;;;;;;;2.07;1.30;;;12.10;99.90;;;;;;5061256;28;20438;-77
2020/12/22 08:07:10;;;;;;;2.70;1.50;;;12.10;99.90;;;;;;5052166;28;20822;-76
2020/12/22 08:09:56;;;;;;;1.77;1.30;;;12.10;99.90;;;;;;5070216;28;20482;-75
2020/12/22 08:12:42;;;;;;;2.33;1.50;;;12.10;99.90;;;;;;5068319;28;20529;-76
2020/12/22 08:15:27;;;;;;;2.27;1.60;;;12.10;99.90;;;;;;5065783;28;20501;-76
2020/12/22 08:18:12;;;;;;;3.00;1.53;;;12.10;99.90;;;;;;5060920;28;20423;-75
2020/12/22 08:21:00;;;;;;;3.03;1.60;;;12.20;99.90;;;;;;5062147;28;21079;-77
2020/12/22 08:23:46;;;;;;;2.43;1.50;;;12.20;99.90;;;;;;5069907;28;20831;-76
2020/12/22 08:26:32;;;;;;;1.97;1.40;;;12.20;99.90;;;;;;5069449;28;20965;-77
2020/12/22 08:29:18;;;;;;;3.03;1.33;;;12.20;99.90;;;;;;5065036;28;20625;-76
2020/12/22 08:32:03;;;;;;;2.03;1.50;;;12.20;99.90;;;;;;5066580;28;21145;-76
2020/12/22 08:34:52;;;;;;;2.27;1.70;;;12.20;99.90;;;;;;5067713;28;20969;-76
2020/12/22 08:37:37;;;;;;;1.50;1.00;;;12.20;99.90;;;;;;5065861;28;20966;-76
2020/12/22 08:40:26;;;;;;;1.80;1.30;;;12.20;99.90;;;;;;5060385;28;20471;-77
2020/12/22 08:43:13;;;;;;;2.60;1.47;;;12.30;99.90;;;;;;5062061;28;20473;-76
2020/12/22 08:45:58;;;;;;;1.70;1.40;;;12.30;99.90;;;;;;5059791;28;20518;-76
2020/12/22 08:48:43;;;;;;;2.10;1.63;;;12.30;99.90;;;;;;5068583;28;20549;-76
2020/12/22 08:51:28;;;;;;;6.20;1.70;;;12.30;99.90;;;;;;5070478;28;20773;-77
2020/12/22 08:54:14;;;;;;;12.13;6.50;;;12.30;99.90;;;;;;5059679;28;20541;-77
2020/12/22 08:57:08;;;;;;;2.60;1.80;;;12.30;99.90;;;;;;5066356;28;20461;-75
2020/12/22 08:59:54;;;;;;;3.23;1.30;;;12.30;99.90;;;;;;5066279;28;20520;-76
2020/12/22 09:02:41;;;;;;;4.70;1.63;;;12.30;99.90;;;;;;5065276;28;20527;-77
2020/12/22 09:05:28;;;;;;;1.83;1.20;;;12.30;99.90;;;;;;5060810;28;20462;-77
2020/12/22 09:08:15;;;;;;;7.43;1.33;;;12.30;99.90;;;;;;5060931;28;20499;-75
2020/12/22 09:11:01;;;;;;;1.77;1.10;;;12.40;99.90;;;;;;5068034;28;21029;-76
2020/12/22 09:13:46;;;;;;;1.70;1.17;;;12.40;99.90;;;;;;5068375;28;20830;-76
2020/12/22 09:17:03;;;;;;;2.03;1.20;;;12.40;99.90;;;;;;5062637;28;20849;-76
2020/12/22 09:19:50;;;;;;;3.70;1.30;;;12.40;99.90;;;;;;5014020;28;20588;-76
2020/12/22 09:22:36;;;;;;;1.80;1.40;;;12.40;99.90;;;;;;5060571;28;20459;-77
2020/12/22 09:25:21;;;;;;;6.83;1.50;;;12.40;99.90;;;;;;5068613;28;20422;-76
2020/12/22 09:28:06;;;;;;;1.87;1.00;;;12.50;99.90;;;;;;5064090;28;20486;-76
2020/12/22 09:30:52;;;;;;;1.83;0.93;;;12.50;99.90;;;;;;5063041;28;20469;-76
2020/12/22 09:33:37;;;;;;;1.70;1.13;;;12.50;99.90;;;;;;5066021;28;20509;-74
2020/12/22 09:36:22;;;;;;;1.70;1.03;;;12.50;99.90;;;;;;5066505;28;20612;-76
2020/12/22 09:39:08;;;;;;;1.57;1.10;;;12.50;99.90;;;;;;5053528;28;20474;-77
2020/12/22 09:41:54;;;;;;;1.60;1.10;;;12.50;99.90;;;;;;5069262;28;20826;-77
2020/12/22 09:44:40;;;;;;;1.67;1.17;;;12.50;99.90;;;;;;5067302;28;20450;-76
2020/12/22 09:47:25;;;;;;;3.30;1.90;;;12.50;99.90;;;;;;5058310;28;20543;-76
2020/12/22 09:50:11;;;;;;;1.60;1.10;;;12.50;99.90;;;;;;5059832;28;20512;-76
2020/12/22 09:52:56;;;;;;;2.47;1.20;;;12.60;99.90;;;;;;5065149;28;20506;-76
2020/12/22 09:55:41;;;;;;;2.27;1.47;;;12.50;99.90;;;;;;5070410;28;20402;-77
2020/12/22 09:58:26;;;;;;;2.13;1.23;;;12.50;99.90;;;;;;5061849;28;20428;-76
2020/12/22 10:01:11;;;;;;;5.10;1.30;;;12.50;99.90;;;;;;5063592;28;20513;-76
2020/12/22 10:03:57;;;;;;;3.80;1.97;;;12.50;99.90;;;;;;5069977;28;20480;-75
2020/12/22 10:06:43;;;;;;;2.23;1.03;;;12.60;99.90;;;;;;5056183;28;21025;-76
2020/12/22 10:09:28;;;;;;;1.73;1.10;;;12.60;99.90;;;;;;5066801;28;20469;-76
2020/12/22 10:12:13;;;;;;;2.50;1.07;;;12.50;99.90;;;;;;5068640;28;20476;-76
2020/12/22 10:14:58;;;;;;;3.50;1.60;;;12.50;99.90;;;;;;5067886;28;20443;-74
2020/12/22 10:17:43;;;;;;;2.70;1.20;;;12.60;99.90;;;;;;5062084;28;20496;-75
2020/12/22 10:20:28;;;;;;;1.93;1.20;;;12.60;99.90;;;;;;5072546;28;21030;-77
2020/12/22 10:23:14;;;;;;;2.03;1.07;;;12.60;99.90;;;;;;5071081;28;20965;-77
2020/12/22 10:26:01;;;;;;;1.80;1.10;;;12.60;99.90;;;;;;5072369;28;20418;-77
2020/12/22 10:28:48;;;;;;;1.70;1.30;;;12.60;99.90;;;;;;5063697;28;21058;-75
2020/12/22 10:31:33;;;;;;;3.70;1.20;;;12.60;99.90;;;;;;5069566;28;20441;-75
2020/12/22 10:34:18;;;;;;;6.80;1.20;;;12.60;99.90;;;;;;5074231;28;20819;-75
2020/12/22 10:37:03;;;;;;;2.23;1.43;;;12.60;99.90;;;;;;5073291;28;20466;-76
2020/12/22 10:39:51;;;;;;;1.50;1.10;;;12.60;99.90;;;;;;5071800;28;20442;-75
2020/12/22 10:42:36;;;;;;;2.20;1.30;;;12.60;99.90;;;;;;5070361;28;20466;-76
2020/12/22 10:45:21;;;;;;;2.80;1.00;;;12.60;99.90;;;;;;5052878;28;20409;-76
2020/12/22 10:48:08;;;;;;;1.63;1.10;;;12.60;99.90;;;;;;5054774;28;20514;-77
2020/12/22 10:50:53;;;;;;;2.13;1.30;;;12.60;99.90;;;;;;5053519;28;20427;-76
2020/12/22 10:53:37;;;;;;;2.10;1.40;;;12.60;99.90;;;;;;5055312;28;20978;-77
2020/12/22 10:56:23;;;;;;;2.20;1.43;;;12.70;99.90;;;;;;5067069;28;20473;-76
2020/12/22 10:59:08;;;;;;;1.73;1.17;;;12.70;99.90;;;;;;5072790;28;21000;-76
2020/12/22 11:01:54;;;;;;;2.90;1.50;;;12.70;99.90;;;;;;5055115;28;20495;-76
2020/12/22 11:04:39;;;;;;;2.10;1.53;;;12.70;99.90;;;;;;5053438;28;20428;-76
2020/12/22 11:07:27;;;;;;;2.80;1.47;;;12.70;99.90;;;;;;5052082;28;20464;-74
2020/12/22 11:10:12;;;;;;;2.80;1.57;;;12.70;99.90;;;;;;5069770;28;20807;-76
2020/12/22 11:12:58;;;;;;;3.20;1.43;;;12.70;99.90;;;;;;5067499;28;20493;-76
2020/12/22 11:15:44;;;;;;;1.80;1.30;;;12.80;99.90;;;;;;5061278;28;20505;-76
2020/12/22 11:18:29;;;;;;;2.00;1.43;;;12.80;99.90;;;;;;5063511;28;20418;-75
2020/12/22 11:21:14;;;;;;;3.83;2.17;;;12.80;99.90;;;;;;5066960;28;20606;-76
2020/12/22 11:23:59;;;;;;;2.00;1.23;;;12.80;99.90;;;;;;5062745;28;20478;-75
2020/12/22 11:26:45;;;;;;;1.50;1.10;;;12.80;99.90;;;;;;5066856;28;20504;-76
2020/12/22 11:29:30;;;;;;;3.00;2.00;;;12.80;99.90;;;;;;5066255;28;20458;-77
2020/12/22 11:32:16;;;;;;;3.83;1.97;;;12.80;99.90;;;;;;5071161;28;20857;-77
2020/12/22 11:35:01;;;;;;;2.90;2.40;;;12.80;99.90;;;;;;5075530;28;20442;-77
2020/12/22 11:37:46;;;;;;;2.70;1.47;;;12.80;99.90;;;;;;5073026;28;20409;-77
2020/12/22 11:40:31;;;;;;;1.90;1.30;;;12.80;99.90;;;;;;5061186;28;20477;-76
2020/12/22 11:43:16;;;;;;;1.80;1.20;;;12.80;99.90;;;;;;5057687;28;20482;-76
2020/12/22 11:46:05;;;;;;;4.97;1.60;;;12.80;99.90;;;;;;5064940;28;20474;-73
2020/12/22 11:48:52;;;;;;;1.90;1.47;;;12.80;99.90;;;;;;5061064;28;20494;-77
2020/12/22 11:51:38;;;;;;;5.07;2.03;;;12.80;99.90;;;;;;5061566;28;20447;-75
2020/12/22 11:54:24;;;;;;;2.90;1.70;;;12.80;99.90;;;;;;5064195;28;21969;-75
2020/12/22 11:57:10;;;;;;;2.30;1.63;;;12.80;99.90;;;;;;5051915;28;20429;-76
2020/12/22 11:59:55;;;;;;;1.97;1.47;;;12.80;99.90;;;;;;5057583;28;20495;-75
2020/12/22 12:02:41;;;;;;;2.20;1.30;;;12.80;99.90;;;;;;5059487;28;20443;-76
2020/12/22 12:05:26;;;;;;;2.00;1.40;;;12.90;99.90;;;;;;5055262;28;20482;-77
2020/12/22 12:08:11;;;;;;;2.10;1.27;;;12.90;99.90;;;;;;5057494;28;20506;-76
2020/12/22 12:10:56;;;;;;;4.47;1.50;;;13.00;99.90;;;;;;5057353;28;20424;-75
2020/12/22 12:13:41;;;;;;;3.03;1.50;;;13.00;99.90;;;;;;5061172;28;20900;-76
2020/12/22 12:16:26;;;;;;;2.93;1.90;;;13.00;99.90;;;;;;5063928;28;20446;-76
2020/12/22 12:19:12;;;;;;;2.97;1.33;;;13.10;99.90;;;;;;5063778;28;20466;-77
2020/12/22 12:21:57;;;;;;;2.20;1.40;;;13.10;99.90;;;;;;5065401;28;20974;-77
2020/12/22 12:24:42;;;;;;;2.30;1.27;;;13.10;99.90;;;;;;5059535;28;20418;-76
2020/12/22 12:27:28;;;;;;;4.03;1.67;;;13.20;99.90;;;;;;5066961;28;20931;-76
2020/12/22 12:30:13;;;;;;;4.73;2.73;;;13.20;99.90;;;;;;5063958;28;20548;-75
2020/12/22 12:32:59;;;;;;;2.77;1.50;;;13.30;99.90;;;;;;5066706;28;20446;-77
2020/12/22 12:35:45;;;;;;;1.77;1.10;;;13.20;99.90;;;;;;5060005;28;20448;-76
2020/12/22 12:38:30;;;;;;;4.90;1.97;;;13.20;99.90;;;;;;5061780;28;20442;-75
2020/12/22 12:41:15;;;;;;;1.70;1.20;;;13.20;99.90;;;;;;5062120;28;20474;-76
2020/12/22 12:44:00;;;;;;;2.37;1.10;;;13.20;99.90;;;;;;5066934;28;20488;-77
2020/12/22 12:46:45;;;;;;;2.50;1.30;;;13.30;99.90;;;;;;5066286;28;20955;-76
2020/12/22 12:49:31;;;;;;;2.60;1.50;;;13.20;99.90;;;;;;5057052;28;20517;-75
2020/12/22 12:52:16;;;;;;;3.00;1.37;;;13.30;99.90;;;;;;5044584;28;20463;-74
2020/12/22 12:55:02;;;;;;;2.30;1.20;;;13.20;99.90;;;;;;5058141;28;20648;-74
2020/12/22 12:57:47;;;;;;;2.10;1.40;;;13.30;99.90;;;;;;5052515;28;20470;-74
2020/12/22 13:00:32;;;;;;;2.30;1.27;;;13.30;99.90;;;;;;5050877;28;20453;-74
2020/12/22 13:03:17;;;;;;;2.50;1.20;;;13.30;99.90;;;;;;5054965;28;20535;-76
2020/12/22 13:06:03;;;;;;;2.50;1.40;;;13.30;99.90;;;;;;5053725;28;21024;-74
2020/12/22 13:08:48;;;;;;;2.13;1.50;;;13.20;99.90;;;;;;5056064;28;20461;-74
2020/12/22 13:11:34;;;;;;;2.23;1.33;;;13.30;99.90;;;;;;5060033;28;20433;-76
2020/12/22 13:14:19;;;;;;;4.57;1.57;;;13.30;99.90;;;;;;5058107;28;20788;-75
2020/12/22 13:17:05;;;;;;;1.70;1.23;;;13.30;99.90;;;;;;5057528;28;20413;-75
2020/12/22 13:19:50;;;;;;;2.67;1.43;;;13.30;99.90;;;;;;5059685;28;20462;-73
2020/12/22 13:22:35;;;;;;;1.93;1.13;;;13.30;99.90;;;;;;5052850;28;20498;-73
2020/12/22 13:25:21;;;;;;;2.40;1.60;;;13.30;99.90;;;;;;5055374;28;20817;-74
2020/12/22 13:28:07;;;;;;;2.70;1.20;;;13.30;99.90;;;;;;5053768;28;20543;-74
2020/12/22 13:30:52;;;;;;;3.57;1.30;;;13.30;99.90;;;;;;5054075;28;20441;-74
2020/12/22 13:33:37;;;;;;;2.07;1.23;;;13.40;99.90;;;;;;5053030;28;20814;-74
2020/12/22 13:36:22;;;;;;;3.77;1.43;;;13.40;99.90;;;;;;5063746;28;20500;-74
2020/12/22 13:39:07;;;;;;;1.90;1.00;;;13.40;99.90;;;;;;5074660;28;20860;-74
2020/12/22 13:41:53;;;;;;;3.43;1.33;;;13.40;99.90;;;;;;5074792;28;20469;-74
2020/12/22 13:44:39;;;;;;;2.30;1.10;;;13.40;99.90;;;;;;5071955;28;20469;-74
2020/12/22 13:47:24;;;;;;;3.67;1.27;;;13.40;99.90;;;;;;5071991;28;20444;-73
2020/12/22 13:50:09;;;;;;;1.70;1.00;;;13.40;99.90;;;;;;5073733;28;20939;-75
2020/12/22 13:52:54;;;;;;;7.00;1.90;;;13.40;99.90;;;;;;5059001;28;20470;-73
2020/12/22 13:55:40;;;;;;;9.50;2.40;;;13.50;99.90;;;;;;5054490;28;20446;-74
2020/12/22 13:58:26;;;;;;;2.57;1.13;;;13.50;99.90;;;;;;5051589;28;20419;-73
2020/12/22 14:01:11;;;;;;;2.17;1.30;;;13.40;99.90;;;;;;5054951;28;20474;-73
2020/12/22 14:03:56;;;;;;;1.80;1.20;;;13.40;99.90;;;;;;5054821;28;21051;-74
2020/12/22 14:06:42;;;;;;;2.73;1.30;;;13.40;99.90;;;;;;5054709;28;20398;-74
2020/12/22 14:09:27;;;;;;;3.40;1.50;;;13.40;99.90;;;;;;5057499;28;20497;-74
2020/12/22 14:12:12;;;;;;;2.77;1.57;;;13.40;99.90;;;;;;5073054;28;20462;-74
2020/12/22 14:14:58;;;;;;;2.03;1.43;;;13.40;99.90;;;;;;5071622;28;20430;-74
2020/12/22 14:17:43;;;;;;;1.73;1.20;;;13.40;99.90;;;;;;5056761;28;20467;-74
2020/12/22 14:20:28;;;;;;;2.00;1.43;;;13.50;99.90;;;;;;5071640;28;20814;-73
2020/12/22 14:23:14;;;;;;;2.43;1.70;;;13.40;99.90;;;;;;5061600;28;20425;-74
2020/12/22 14:26:00;;;;;;;4.40;3.00;;;13.40;99.90;;;;;;5071236;28;20397;-75